createdAt,value
2022-08-09T00:00:08.143Z,16.94
2022-08-09T00:02:42.757Z,16.91
2022-08-09T00:06:19.508Z,16.89
2022-08-09T00:08:02.275Z,16.86
2022-08-09T00:10:28.785Z,16.83
2022-08-09T00:12:55.382Z,16.80
2022-08-09T00:15:26.838Z,16.78
2022-08-09T00:18:11.874Z,16.76
2022-08-09T00:20:42.467Z,16.73
2022-08-09T00:23:57.682Z,16.72
2022-08-09T00:26:05.747Z,16.69
2022-08-09T00:28:34.579Z,16.66
2022-08-09T00:31:09.217Z,16.63
2022-08-09T00:33:51.413Z,16.60
2022-08-09T00:36:19.452Z,16.58
2022-08-09T00:38:45.961Z,16.56
2022-08-09T00:44:15.388Z,16.49
2022-08-09T00:44:16.464Z,16.53
2022-08-09T00:46:56.914Z,16.46
2022-08-09T00:49:28.077Z,16.45
2022-08-09T00:51:57.124Z,16.42
2022-08-09T00:54:31.354Z,16.40
2022-08-09T00:57:10.176Z,16.37
2022-08-09T00:59:46.392Z,16.36
2022-08-09T01:02:20.885Z,16.35
2022-08-09T01:05:21.967Z,16.32
2022-08-09T01:08:00.639Z,16.31
2022-08-09T01:10:28.928Z,16.31
2022-08-09T01:13:18.250Z,16.32
2022-08-09T01:15:52.530Z,16.31
2022-08-09T01:18:30.634Z,16.29
2022-08-09T01:21:17.321Z,16.25
2022-08-09T01:24:34.519Z,16.18
2022-08-09T01:27:08.695Z,16.11
2022-08-09T01:29:55.822Z,16.02
2022-08-09T01:32:34.192Z,15.91
2022-08-09T01:35:37.593Z,15.86
2022-08-09T01:38:14.932Z,15.84
2022-08-09T01:40:45.110Z,15.81
2022-08-09T01:43:21.025Z,15.73
2022-08-09T01:45:53.641Z,15.65
2022-08-09T01:48:29.736Z,15.59
2022-08-09T01:50:59.411Z,15.53
2022-08-09T01:53:29.314Z,15.54
2022-08-09T01:56:11.328Z,15.59
2022-08-09T01:58:39.948Z,15.61
2022-08-09T02:01:07.956Z,15.61
2022-08-09T02:03:37.102Z,15.59
2022-08-09T02:06:07.210Z,15.59
2022-08-09T02:08:57.062Z,15.58
2022-08-09T02:11:42.751Z,15.58
2022-08-09T02:14:16.045Z,15.57
2022-08-09T02:17:14.953Z,15.57
2022-08-09T02:19:43.366Z,15.57
2022-08-09T02:22:34.948Z,15.55
2022-08-09T02:25:07.784Z,15.54
2022-08-09T02:27:57.734Z,15.49
2022-08-09T02:30:26.601Z,15.47
2022-08-09T02:32:54.973Z,15.42
2022-08-09T02:36:03.162Z,15.36
2022-08-09T02:38:27.877Z,15.32
2022-08-09T02:41:00.693Z,15.34
2022-08-09T02:43:29.313Z,15.30
2022-08-09T02:46:11.975Z,15.31
2022-08-09T02:48:40.372Z,15.30
2022-08-09T02:51:17.327Z,15.30
2022-08-09T02:53:59.561Z,15.28
2022-08-09T02:56:30.322Z,15.26
2022-08-09T02:59:02.014Z,15.21
2022-08-09T03:01:58.704Z,15.18
2022-08-09T03:04:19.751Z,15.20
2022-08-09T03:06:48.802Z,15.08
2022-08-09T03:09:17.693Z,14.96
2022-08-09T03:12:06.629Z,14.91
2022-08-09T03:14:32.903Z,14.83
2022-08-09T03:17:01.682Z,14.74
2022-08-09T03:19:57.967Z,14.73
2022-08-09T03:22:25.387Z,14.74
2022-08-09T03:25:05.762Z,14.71
2022-08-09T03:27:45.318Z,14.70
2022-08-09T03:30:13.482Z,14.73
2022-08-09T03:32:41.009Z,14.72
2022-08-09T03:35:24.303Z,14.73
2022-08-09T03:37:55.422Z,14.74
2022-08-09T03:40:24.610Z,14.76
2022-08-09T03:42:51.471Z,14.77
2022-08-09T03:46:02.930Z,14.81
2022-08-09T03:48:05.126Z,14.78
2022-08-09T03:50:35.009Z,14.78
2022-08-09T03:53:05.194Z,14.78
2022-08-09T03:55:36.103Z,14.76
2022-08-09T03:58:14.862Z,14.76
2022-08-09T04:00:44.984Z,14.71
2022-08-09T04:03:15.362Z,14.69
2022-08-09T04:05:52.197Z,14.70
2022-08-09T04:08:18.781Z,14.66
2022-08-09T04:10:55.811Z,14.67
2022-08-09T04:14:36.801Z,14.69
2022-08-09T04:16:19.560Z,14.69
2022-08-09T04:18:47.933Z,14.68
2022-08-09T04:21:17.455Z,14.68
2022-08-09T04:23:54.258Z,14.69
2022-08-09T04:26:24.748Z,14.69
2022-08-09T04:29:09.608Z,14.73
2022-08-09T04:31:47.384Z,14.70
2022-08-09T04:34:18.817Z,14.71
2022-08-09T04:36:50.319Z,14.70
2022-08-09T04:39:17.058Z,14.69
2022-08-09T04:41:44.323Z,14.73
2022-08-09T04:44:14.681Z,14.70
2022-08-09T04:46:59.606Z,14.75
2022-08-09T04:49:52.422Z,14.79
2022-08-09T04:52:26.698Z,14.85
2022-08-09T04:55:02.644Z,14.89
2022-08-09T04:57:58.764Z,14.89
2022-08-09T05:00:20.218Z,14.94
2022-08-09T05:02:48.541Z,14.99
2022-08-09T05:05:32.518Z,15.00
2022-08-09T05:08:05.885Z,15.03
2022-08-09T05:10:34.177Z,15.06
2022-08-09T05:13:03.805Z,15.10
2022-08-09T05:15:43.223Z,15.11
2022-08-09T05:18:42.381Z,15.16
2022-08-09T05:21:02.064Z,15.21
2022-08-09T05:23:53.597Z,15.25
2022-08-09T05:26:16.002Z,15.32
2022-08-09T05:28:48.804Z,15.40
2022-08-09T05:31:18.593Z,15.44
2022-08-09T05:34:03.927Z,15.51
2022-08-09T05:36:30.656Z,15.53
2022-08-09T05:38:59.306Z,15.56
2022-08-09T05:41:26.496Z,15.62
2022-08-09T05:43:53.077Z,15.70
2022-08-09T05:46:19.615Z,15.77
2022-08-09T05:48:57.616Z,15.81
2022-08-09T05:51:42.625Z,15.88
2022-08-09T05:54:12.031Z,15.95
2022-08-09T05:56:39.222Z,16.01
2022-08-09T05:59:21.931Z,16.10
2022-08-09T06:01:49.281Z,16.16
2022-08-09T06:04:16.659Z,16.24
2022-08-09T06:06:50.273Z,16.29
2022-08-09T06:09:23.087Z,16.37
2022-08-09T06:12:06.741Z,16.39
2022-08-09T06:14:34.630Z,16.43
2022-08-09T06:17:09.096Z,16.48
2022-08-09T06:19:35.990Z,16.62
2022-08-09T06:22:03.781Z,16.71
2022-08-09T06:24:30.562Z,16.75
2022-08-09T06:26:57.891Z,16.79
2022-08-09T06:29:26.820Z,16.82
2022-08-09T06:32:08.501Z,16.91
2022-08-09T06:34:40.393Z,16.97
2022-08-09T06:37:10.034Z,17.00
2022-08-09T06:39:48.759Z,17.07
2022-08-09T06:42:24.753Z,17.18
2022-08-09T06:44:55.415Z,17.23
2022-08-09T06:47:24.339Z,17.28
2022-08-09T06:50:14.969Z,17.36
2022-08-09T06:52:47.095Z,17.35
2022-08-09T06:55:17.621Z,17.45
2022-08-09T06:58:01.746Z,17.53
2022-08-09T07:00:56.139Z,17.63
2022-08-09T07:03:17.538Z,17.72
2022-08-09T07:05:58.522Z,17.82
2022-08-09T07:08:30.670Z,17.90
2022-08-09T07:10:57.404Z,17.97
2022-08-09T07:13:28.251Z,18.03
2022-08-09T07:16:39.059Z,18.06
2022-08-09T07:18:42.359Z,18.13
2022-08-09T07:21:10.267Z,18.20
2022-08-09T07:23:56.607Z,18.26
2022-08-09T07:26:25.812Z,18.35
2022-08-09T07:29:08.934Z,18.42
2022-08-09T07:31:45.168Z,18.54
2022-08-09T07:34:20.242Z,18.62
2022-08-09T07:36:48.630Z,18.65
2022-08-09T07:39:19.996Z,18.75
2022-08-09T07:41:53.785Z,18.88
2022-08-09T07:44:24.123Z,18.99
2022-08-09T07:46:59.820Z,19.13
2022-08-09T07:49:28.176Z,19.21
2022-08-09T07:52:05.049Z,19.29
2022-08-09T07:54:32.961Z,19.38
2022-08-09T07:56:59.953Z,19.38
2022-08-09T07:59:45.508Z,19.38
2022-08-09T08:02:19.694Z,19.44
2022-08-09T08:04:48.654Z,19.57
2022-08-09T08:08:43.002Z,19.69
2022-08-09T08:10:10.227Z,19.87
2022-08-09T08:12:43.791Z,19.93
2022-08-09T08:15:13.749Z,20.01
2022-08-09T08:17:54.914Z,20.13
2022-08-09T08:20:28.692Z,20.24
2022-08-09T08:22:58.636Z,20.28
2022-08-09T08:25:43.920Z,20.45
2022-08-09T08:28:14.282Z,20.59
2022-08-09T08:30:43.156Z,20.65
2022-08-09T08:33:11.798Z,20.75
2022-08-09T08:35:59.531Z,20.89
2022-08-09T08:38:26.127Z,20.95
2022-08-09T08:40:56.478Z,21.05
2022-08-09T08:43:26.554Z,21.14
2022-08-09T08:46:10.201Z,21.20
2022-08-09T08:48:51.586Z,21.29
2022-08-09T08:51:22.509Z,21.49
2022-08-09T08:54:03.206Z,21.55
2022-08-09T08:56:37.653Z,21.58
2022-08-09T08:59:19.995Z,21.64
2022-08-09T09:01:52.095Z,21.74
2022-08-09T09:04:27.099Z,21.82
2022-08-09T09:06:58.141Z,21.95
2022-08-09T09:09:58.355Z,22.12
2022-08-09T09:12:16.856Z,22.29
2022-08-09T09:14:45.454Z,22.42
2022-08-09T09:17:16.586Z,22.48
2022-08-09T09:19:44.344Z,22.49
2022-08-09T09:22:15.783Z,22.53
2022-08-09T09:24:49.520Z,22.46
2022-08-09T09:28:06.307Z,22.56
2022-08-09T09:30:39.735Z,22.56
2022-08-09T09:33:16.631Z,22.64
2022-08-09T09:36:20.553Z,22.81
2022-08-09T09:38:59.543Z,23.08
2022-08-09T09:41:33.522Z,23.08
2022-08-09T09:44:25.296Z,23.13
2022-08-09T09:47:06.460Z,23.26
2022-08-09T09:49:56.288Z,23.37
2022-08-09T09:52:36.083Z,23.59
2022-08-09T09:55:24.047Z,23.72
2022-08-09T09:58:16.630Z,23.77
2022-08-09T10:00:53.936Z,24.00
2022-08-09T10:03:57.004Z,24.00
2022-08-09T10:06:24.591Z,24.09
2022-08-09T10:08:54.866Z,24.18
2022-08-09T10:12:01.412Z,24.29
2022-08-09T10:14:30.450Z,24.57
2022-08-09T10:17:38.678Z,24.65
2022-08-09T10:19:46.154Z,24.86
2022-08-09T10:22:12.885Z,24.88
2022-08-09T10:24:40.690Z,24.92
2022-08-09T10:27:10.318Z,25.01
2022-08-09T10:30:43.864Z,25.04
2022-08-09T10:32:50.323Z,25.05
2022-08-09T10:35:17.403Z,25.28
2022-08-09T10:37:47.908Z,25.44
2022-08-09T10:40:33.695Z,25.34
2022-08-09T10:43:01.761Z,25.50
2022-08-09T10:45:31.482Z,25.72
2022-08-09T10:48:26.304Z,25.60
2022-08-09T10:51:42.579Z,25.82
2022-08-09T10:54:13.849Z,26.06
2022-08-09T10:56:42.228Z,26.03
2022-08-09T10:59:31.217Z,26.11
2022-08-09T11:03:15.111Z,26.28
2022-08-09T11:05:24.551Z,26.42
2022-08-09T11:07:58.517Z,26.59
2022-08-09T11:10:47.204Z,26.64
2022-08-09T11:13:49.854Z,26.82
2022-08-09T11:16:39.303Z,26.77
2022-08-09T11:19:10.392Z,26.80
2022-08-09T11:21:57.265Z,26.83
2022-08-09T11:24:57.761Z,27.10
2022-08-09T11:28:02.508Z,27.23
2022-08-09T11:30:32.677Z,27.38
2022-08-09T11:33:18.998Z,27.54
2022-08-09T11:35:54.423Z,27.52
2022-08-09T11:38:28.655Z,27.45
2022-08-09T11:41:05.401Z,27.42
2022-08-09T11:43:32.397Z,27.67
2022-08-09T11:46:03.048Z,27.80
2022-08-09T11:48:32.578Z,27.61
2022-08-09T11:52:49.190Z,27.88
2022-08-09T11:54:28.346Z,28.18
2022-08-09T11:57:59.697Z,28.43
2022-08-09T12:00:27.321Z,28.60
2022-08-09T12:02:55.624Z,28.65
2022-08-09T12:05:22.867Z,28.72
2022-08-09T12:07:50.107Z,28.78
2022-08-09T12:10:38.293Z,29.06
2022-08-09T12:14:07.727Z,29.08
2022-08-09T12:16:00.626Z,29.13
2022-08-09T12:18:30.968Z,29.19
2022-08-09T12:21:02.462Z,29.26
2022-08-09T12:23:56.513Z,29.33
2022-08-09T12:26:19.577Z,29.26
2022-08-09T12:29:10.433Z,29.48
2022-08-09T12:31:59.039Z,29.63
2022-08-09T12:34:33.075Z,29.64
2022-08-09T12:37:09.706Z,29.69
2022-08-09T12:40:27.259Z,29.90
2022-08-09T12:42:55.056Z,30.21
2022-08-09T12:45:35.018Z,30.29
2022-08-09T12:48:07.901Z,30.48
2022-08-09T12:50:47.664Z,30.14
2022-08-09T12:53:37.619Z,30.36
2022-08-09T12:56:43.728Z,30.58
2022-08-09T12:59:08.012Z,30.79
2022-08-09T13:01:35.167Z,30.77
2022-08-09T13:04:33.262Z,30.97
2022-08-09T13:06:56.356Z,31.00
2022-08-09T13:09:27.018Z,31.04
2022-08-09T13:12:04.469Z,31.02
2022-08-09T13:14:43.946Z,31.24
2022-08-09T13:17:43.843Z,30.99
2022-08-09T13:20:14.339Z,30.87
2022-08-09T13:23:01.495Z,31.11
2022-08-09T13:25:54.585Z,31.17
2022-08-09T13:28:33.881Z,31.23
2022-08-09T13:32:14.334Z,31.44
2022-08-09T13:33:54.597Z,31.51
2022-08-09T13:36:38.602Z,31.57
2022-08-09T13:41:20.855Z,31.55
2022-08-09T13:42:01.470Z,31.59
2022-08-09T13:44:28.946Z,31.96
2022-08-09T13:47:26.445Z,31.98
2022-08-09T13:49:58.270Z,32.18
2022-08-09T13:52:30.759Z,32.13
2022-08-09T13:55:00.013Z,32.12
2022-08-09T13:57:35.360Z,32.04
2022-08-09T14:00:18.769Z,31.92
2022-08-09T14:03:57.917Z,31.71
2022-08-09T14:05:58.519Z,31.48
2022-08-09T14:08:23.886Z,31.51
2022-08-09T14:10:53.621Z,31.59
2022-08-09T14:14:15.153Z,31.56
2022-08-09T14:16:15.911Z,31.37
2022-08-09T14:18:45.864Z,31.20
2022-08-09T14:21:20.355Z,30.64
2022-08-09T14:23:53.994Z,30.25
2022-08-09T14:26:24.047Z,30.19
2022-08-09T14:28:52.175Z,30.20
2022-08-09T14:31:18.632Z,30.17
2022-08-09T14:33:54.569Z,30.03
2022-08-09T14:36:21.482Z,30.29
2022-08-09T14:38:52.935Z,30.93
2022-08-09T14:41:34.409Z,31.34
2022-08-09T14:44:07.371Z,31.55
2022-08-09T14:46:54.448Z,31.83
2022-08-09T14:49:25.518Z,32.51
2022-08-09T14:51:53.300Z,32.51
2022-08-09T14:54:28.523Z,32.31
2022-08-09T14:56:57.900Z,32.35
2022-08-09T14:59:25.310Z,32.46
2022-08-09T15:01:53.837Z,32.45
2022-08-09T15:04:20.574Z,32.72
2022-08-09T15:06:52.010Z,32.78
2022-08-09T15:10:03.427Z,33.02
2022-08-09T15:12:08.046Z,33.34
2022-08-09T15:14:35.212Z,33.13
2022-08-09T15:17:08.861Z,32.82
2022-08-09T15:19:36.583Z,32.89
2022-08-09T15:22:03.717Z,33.22
2022-08-09T15:24:30.261Z,33.29
2022-08-09T15:26:57.774Z,33.22
2022-08-09T15:30:59.386Z,33.40
2022-08-09T15:32:28.986Z,33.36
2022-08-09T15:35:00.779Z,33.20
2022-08-09T15:37:56.310Z,33.47
2022-08-09T15:40:31.994Z,33.59
2022-08-09T15:43:00.470Z,33.25
2022-08-09T15:45:29.694Z,33.33
2022-08-09T15:48:06.540Z,33.29
2022-08-09T15:50:44.021Z,32.80
2022-08-09T15:53:32.700Z,32.65
2022-08-09T15:56:21.031Z,32.92
2022-08-09T15:58:44.712Z,33.08
2022-08-09T16:01:13.451Z,33.04
2022-08-09T16:03:41.556Z,33.22
2022-08-09T16:06:27.367Z,33.55
2022-08-09T16:08:56.084Z,33.47
2022-08-09T16:11:22.695Z,33.40
2022-08-09T16:14:04.017Z,33.43
2022-08-09T16:16:34.528Z,33.20
2022-08-09T16:19:04.483Z,33.25
2022-08-09T16:21:31.642Z,33.47
2022-08-09T16:24:02.768Z,33.55
2022-08-09T16:26:34.470Z,33.79
2022-08-09T16:29:10.825Z,33.84
2022-08-09T16:32:20.131Z,34.00
2022-08-09T16:34:29.324Z,34.16
2022-08-09T16:36:56.544Z,34.39
2022-08-09T16:39:25.917Z,34.53
2022-08-09T16:42:03.511Z,34.51
2022-08-09T16:44:31.851Z,34.62
2022-08-09T16:47:01.876Z,34.62
2022-08-09T16:50:29.748Z,34.48
2022-08-09T16:52:32.512Z,34.55
2022-08-09T16:55:00.148Z,34.70
2022-08-09T16:57:26.649Z,34.65
2022-08-09T17:00:14.100Z,34.74
2022-08-09T17:02:42.740Z,34.89
2022-08-09T17:05:14.127Z,34.85
2022-08-09T17:08:43.014Z,34.70
2022-08-09T17:10:32.995Z,34.66
2022-08-09T17:13:02.648Z,34.47
2022-08-09T17:15:59.380Z,34.60
2022-08-09T17:18:26.784Z,34.67
2022-08-09T17:20:56.702Z,34.86
2022-08-09T17:23:23.648Z,34.76
2022-08-09T17:26:10.437Z,34.76
2022-08-09T17:28:39.086Z,34.93
2022-08-09T17:31:05.847Z,35.09
2022-08-09T17:33:37.735Z,35.10
2022-08-09T17:36:04.967Z,34.97
2022-08-09T17:38:38.622Z,34.96
2022-08-09T17:41:06.074Z,34.58
2022-08-09T17:43:37.038Z,34.64
2022-08-09T17:46:07.549Z,34.63
2022-08-09T17:48:38.953Z,34.77
2022-08-09T17:51:18.592Z,33.87
2022-08-09T17:53:52.802Z,33.11
2022-08-09T17:56:27.123Z,31.94
2022-08-09T17:58:54.946Z,30.80
2022-08-09T18:01:23.333Z,29.85
2022-08-09T18:03:52.618Z,29.31
2022-08-09T18:06:31.768Z,28.79
2022-08-09T18:09:05.025Z,28.24
2022-08-09T18:12:05.783Z,27.86
2022-08-09T18:14:21.727Z,27.53
2022-08-09T18:16:49.693Z,27.27
2022-08-09T18:20:56.928Z,26.99
2022-08-09T18:22:04.164Z,26.70
2022-08-09T18:24:31.156Z,26.50
2022-08-09T18:27:03.543Z,26.30
2022-08-09T18:30:34.665Z,26.15
2022-08-09T18:32:19.312Z,25.95
2022-08-09T18:34:45.990Z,25.84
2022-08-09T18:37:48.880Z,25.74
2022-08-09T18:40:01.960Z,25.61
2022-08-09T18:42:29.479Z,25.56
2022-08-09T18:45:01.109Z,25.40
2022-08-09T18:47:37.167Z,25.25
2022-08-09T18:50:06.094Z,25.21
2022-08-09T18:52:36.642Z,25.08
2022-08-09T18:55:13.470Z,25.00
2022-08-09T18:57:44.677Z,24.86
2022-08-09T19:00:16.648Z,24.81
2022-08-09T19:02:48.549Z,24.68
2022-08-09T19:05:49.045Z,24.56
2022-08-09T19:08:10.761Z,24.47
2022-08-09T19:10:43.631Z,24.35
2022-08-09T19:13:18.437Z,24.27
2022-08-09T19:15:49.842Z,24.17
2022-08-09T19:18:32.874Z,24.05
2022-08-09T19:21:03.588Z,23.96
2022-08-09T19:24:36.588Z,23.90
2022-08-09T19:26:22.438Z,23.79
2022-08-09T19:29:01.644Z,23.70
2022-08-09T19:31:28.638Z,23.65
2022-08-09T19:33:59.682Z,23.58
2022-08-09T19:36:32.696Z,23.51
2022-08-09T19:39:03.632Z,23.43
2022-08-09T19:41:35.490Z,23.36
2022-08-09T19:44:05.088Z,23.26
2022-08-09T19:46:35.719Z,23.17
2022-08-09T19:50:07.373Z,23.08
2022-08-09T19:52:06.537Z,23.00
2022-08-09T19:54:33.399Z,22.89
2022-08-09T19:57:00.341Z,22.78
2022-08-09T19:59:57.923Z,22.71
2022-08-09T20:04:06.975Z,22.63
2022-08-09T20:05:09.749Z,22.55
2022-08-09T20:07:59.249Z,22.45
2022-08-09T20:10:34.014Z,22.38
2022-08-09T20:13:02.402Z,22.27
2022-08-09T20:16:34.089Z,22.19
2022-08-09T20:18:18.054Z,22.11
2022-08-09T20:20:46.670Z,22.02
2022-08-09T20:23:13.192Z,21.98
2022-08-09T20:25:52.584Z,21.93
2022-08-09T20:28:27.919Z,21.86
2022-08-09T20:31:04.642Z,21.80
2022-08-09T20:33:38.958Z,21.73
2022-08-09T20:36:09.009Z,21.68
2022-08-09T20:39:07.150Z,21.61
2022-08-09T20:41:32.237Z,21.50
2022-08-09T20:44:03.588Z,21.48
2022-08-09T20:46:43.346Z,21.41
2022-08-09T20:49:13.528Z,21.31
2022-08-09T20:51:42.151Z,21.23
2022-08-09T20:54:12.639Z,21.16
2022-08-09T20:56:47.106Z,21.13
2022-08-09T20:59:17.094Z,21.09
2022-08-09T21:01:50.960Z,21.03
2022-08-09T21:05:52.520Z,20.95
2022-08-09T21:07:11.918Z,20.88
2022-08-09T21:09:45.634Z,20.82
2022-08-09T21:12:23.227Z,20.77
2022-08-09T21:14:50.208Z,20.73
2022-08-09T21:18:23.135Z,20.67
2022-08-09T21:20:22.247Z,20.60
2022-08-09T21:22:54.091Z,20.53
2022-08-09T21:25:43.975Z,20.48
2022-08-09T21:28:33.369Z,20.42
2022-08-09T21:31:17.003Z,20.37
2022-08-09T21:33:45.396Z,20.32
2022-08-09T21:36:28.922Z,20.25
2022-08-09T21:39:01.346Z,20.20
2022-08-09T21:42:05.478Z,20.17
2022-08-09T21:44:32.925Z,20.11
2022-08-09T21:47:04.866Z,20.04
2022-08-09T21:49:39.909Z,20.02
2022-08-09T21:52:14.773Z,19.95
2022-08-09T21:55:03.978Z,19.89
2022-08-09T21:57:39.532Z,19.84
2022-08-09T22:00:33.884Z,19.79
2022-08-09T22:03:04.716Z,19.69
2022-08-09T22:05:37.077Z,19.63
2022-08-09T22:08:13.102Z,19.57
2022-08-09T22:11:05.040Z,19.52
2022-08-09T22:13:33.978Z,19.46
2022-08-09T22:16:04.287Z,19.42
2022-08-09T22:18:33.045Z,19.39
2022-08-09T22:21:00.482Z,19.35
2022-08-09T22:23:27.037Z,19.32
2022-08-09T22:26:07.194Z,19.28
2022-08-09T22:28:36.187Z,19.24
2022-08-09T22:31:13.820Z,19.21
2022-08-09T22:33:49.144Z,19.15
2022-08-09T22:36:22.174Z,19.10
2022-08-09T22:38:48.870Z,19.04
2022-08-09T22:41:15.523Z,19.01
2022-08-09T22:44:02.276Z,18.94
2022-08-09T22:48:16.425Z,18.88
2022-08-09T22:49:16.289Z,18.81
2022-08-09T22:51:49.330Z,18.80
2022-08-09T22:54:16.774Z,18.77
2022-08-09T22:56:56.481Z,18.73
2022-08-09T22:59:56.988Z,18.73
2022-08-09T23:02:10.167Z,18.68
2022-08-09T23:04:38.419Z,18.67
2022-08-09T23:08:21.408Z,18.65
2022-08-09T23:10:11.193Z,18.62
2022-08-09T23:12:37.883Z,18.54
2022-08-09T23:15:05.157Z,18.50
2022-08-09T23:17:31.791Z,18.43
2022-08-09T23:20:00.945Z,18.35
2022-08-09T23:22:34.153Z,18.26
2022-08-09T23:25:04.064Z,18.21
2022-08-09T23:27:30.576Z,18.14
2022-08-09T23:29:57.243Z,18.10
2022-08-09T23:32:23.781Z,18.07
2022-08-09T23:34:50.308Z,18.06
2022-08-09T23:37:17.677Z,18.02
2022-08-09T23:39:48.393Z,18.02
2022-08-09T23:42:15.071Z,18.00
2022-08-09T23:44:41.949Z,17.97
2022-08-09T23:47:08.484Z,17.93
2022-08-09T23:49:35.098Z,17.90
2022-08-09T23:52:01.727Z,17.87
2022-08-09T23:54:28.404Z,17.84
2022-08-09T23:56:56.160Z,17.80
2022-08-09T23:59:25.776Z,17.73
